Airfield :
LOGIN :

Register | Disclaimer

   EN    FR    IT 

 










Legend :    VFR   Marginal VFR   IFR   Intensive IFR   Very Intensive IFR
Visi :
Ceiling :
>= 8 km
>= 3000ft
5 to 8 km
1000 to 3000 ft
1500m to 5 km
500 to 1000 ft
800 to 1500m
200 to 500 ft
< 800m
< 200 ft
Symbols :   Thunderstorms  Fog  Heavy snow  Heavy precipitations  Wind > 20 kt
SIGMETs :     Misc.  Thunderstorms  Icing  Turbulence  Mountain Waves  Volcanic Ashes






- Airport Elevation : 794 ft


LKCV - Čáslav Air Base

CURRENT METAR :
  • 230800Z 30005KT 260V330 9999 FEW023 SCT090 18/12 Q1015 NOSIG RMK BLU BLU

EXPIRED METARs :
  • 230730Z 29007KT 9999 FEW020 SCT090 17/12 Q1015 NOSIG RMK BLU BLU
  • 230700Z 28006KT 250V310 9999 FEW017 BKN090 17/12 Q1015 NOSIG RMK BLU BLU
  • 230630Z 28005KT 230V300 CAVOK 16/12 Q1015 NOSIG RMK BLU BLU
  • 230600Z 24002KT CAVOK 16/12 Q1015 NOSIG RMK BLU BLU
  • 230530Z 23003KT 200V260 CAVOK 15/12 Q1015 NOSIG RMK BLU BLU
  • 230500Z 18003KT CAVOK 14/13 Q1015 NOSIG RMK BLU BLU
  • 230430Z 15002KT CAVOK 12/11 Q1014 NOSIG RMK BLU BLU
  • 230400Z VRB02KT CAVOK 12/11 Q1014 NOSIG RMK BLU BLU
  • 230330Z 12003KT CAVOK 12/10 Q1014 NOSIG RMK BLU BLU

TAF TAF LKCV
Valid from the 23 at 06:00 until the 24 at 06:00 UTC


230500Z 2306/2406 29006KT CAVOK
TEMPO 2308/2316 BKN035
PROB40
TEMPO 2311/2315 7000 SHRA BKN025TCU
BECMG 2316/2318 VRB02KT
PROB30
TEMPO 2400/2406 5000 BR



MET'MAP, your aeronautical weather chart ! - Copyright ORBIFLY December 2007 - Disclaimer

ORBIFLY MET'MAP TEAM :

Programming & Development : Alexandra Zaïnal
Original concept : Baudouin d'Aumeries
Technical & hardware support : Manuel Goepfert
Assistance : Marc-Olivier Méhu




SOURCES & CREDITS :

   NOAA